sensor_id;sensor_type;location;lat;lon;timestamp;temperature;humidity
8436;DHT22;4255;48.730;9.156;2022-11-20T00:01:19;7.20;99.90
8436;DHT22;4255;48.730;9.156;2022-11-20T00:03:45;7.20;99.90
8436;DHT22;4255;48.730;9.156;2022-11-20T00:06:14;7.20;99.90
8436;DHT22;4255;48.730;9.156;2022-11-20T00:08:40;7.30;99.90
8436;DHT22;4255;48.730;9.156;2022-11-20T00:11:08;7.20;99.90
8436;DHT22;4255;48.730;9.156;2022-11-20T00:13:34;7.10;99.90
8436;DHT22;4255;48.730;9.156;2022-11-20T00:16:02;7.10;99.90
8436;DHT22;4255;48.730;9.156;2022-11-20T00:18:29;7.00;99.90
8436;DHT22;4255;48.730;9.156;2022-11-20T00:21:07;7.00;99.90
8436;DHT22;4255;48.730;9.156;2022-11-20T00:23:32;7.00;99.90
8436;DHT22;4255;48.730;9.156;2022-11-20T00:26:05;7.10;99.90
8436;DHT22;4255;48.730;9.156;2022-11-20T00:28:32;6.90;99.90
8436;DHT22;4255;48.730;9.156;2022-11-20T00:31:14;6.90;99.90
8436;DHT22;4255;48.730;9.156;2022-11-20T00:33:41;6.80;99.90
8436;DHT22;4255;48.730;9.156;2022-11-20T00:36:09;6.80;99.90
8436;DHT22;4255;48.730;9.156;2022-11-20T00:38:35;6.80;99.90
8436;DHT22;4255;48.730;9.156;2022-11-20T00:41:03;6.80;99.90
8436;DHT22;4255;48.730;9.156;2022-11-20T00:43:29;6.70;99.90
8436;DHT22;4255;48.730;9.156;2022-11-20T00:46:34;6.60;99.90
8436;DHT22;4255;48.730;9.156;2022-11-20T00:48:53;6.50;99.90
8436;DHT22;4255;48.730;9.156;2022-11-20T00:51:22;6.60;99.90
8436;DHT22;4255;48.730;9.156;2022-11-20T00:53:48;6.70;99.90
8436;DHT22;4255;48.730;9.156;2022-11-20T00:56:16;6.60;99.90
8436;DHT22;4255;48.730;9.156;2022-11-20T00:58:43;6.70;99.90
8436;DHT22;4255;48.730;9.156;2022-11-20T01:01:21;6.60;99.90
8436;DHT22;4255;48.730;9.156;2022-11-20T01:03:48;6.80;99.90
8436;DHT22;4255;48.730;9.156;2022-11-20T01:08:51;6.80;99.90
8436;DHT22;4255;48.730;9.156;2022-11-20T01:11:26;6.80;99.90
8436;DHT22;4255;48.730;9.156;2022-11-20T01:13:53;6.80;99.90
8436;DHT22;4255;48.730;9.156;2022-11-20T01:16:25;6.60;99.90
8436;DHT22;4255;48.730;9.156;2022-11-20T01:18:53;6.40;99.90
8436;DHT22;4255;48.730;9.156;2022-11-20T01:21:24;6.40;99.90
8436;DHT22;4255;48.730;9.156;2022-11-20T01:23:51;6.50;99.90
8436;DHT22;4255;48.730;9.156;2022-11-20T01:26:20;6.50;99.90
8436;DHT22;4255;48.730;9.156;2022-11-20T01:28:46;6.50;99.90
8436;DHT22;4255;48.730;9.156;2022-11-20T01:31:19;6.40;99.90
8436;DHT22;4255;48.730;9.156;2022-11-20T01:33:47;6.40;99.90
8436;DHT22;4255;48.730;9.156;2022-11-20T01:36:13;6.30;99.90
8436;DHT22;4255;48.730;9.156;2022-11-20T01:38:40;6.40;99.90
8436;DHT22;4255;48.730;9.156;2022-11-20T01:41:06;6.50;99.90
8436;DHT22;4255;48.730;9.156;2022-11-20T01:43:32;6.60;99.90
8436;DHT22;4255;48.730;9.156;2022-11-20T01:48:38;6.40;99.90
8436;DHT22;4255;48.730;9.156;2022-11-20T01:51:10;6.40;99.90
8436;DHT22;4255;48.730;9.156;2022-11-20T01:53:38;6.40;99.90
8436;DHT22;4255;48.730;9.156;2022-11-20T01:56:06;6.30;99.90
8436;DHT22;4255;48.730;9.156;2022-11-20T01:58:36;6.20;99.90
8436;DHT22;4255;48.730;9.156;2022-11-20T02:01:03;6.40;99.90
8436;DHT22;4255;48.730;9.156;2022-11-20T02:03:29;6.50;99.90
8436;DHT22;4255;48.730;9.156;2022-11-20T02:08:26;6.50;99.90
8436;DHT22;4255;48.730;9.156;2022-11-20T02:10:53;6.40;99.90
8436;DHT22;4255;48.730;9.156;2022-11-20T02:13:19;6.40;99.90
8436;DHT22;4255;48.730;9.156;2022-11-20T02:16:03;6.20;99.90
8436;DHT22;4255;48.730;9.156;2022-11-20T02:18:30;6.00;99.90
8436;DHT22;4255;48.730;9.156;2022-11-20T02:21:47;5.90;99.90
8436;DHT22;4255;48.730;9.156;2022-11-20T02:24:03;6.00;99.90
8436;DHT22;4255;48.730;9.156;2022-11-20T02:26:33;6.00;99.90
8436;DHT22;4255;48.730;9.156;2022-11-20T02:29:00;6.10;99.90
8436;DHT22;4255;48.730;9.156;2022-11-20T02:31:27;6.20;99.90
8436;DHT22;4255;48.730;9.156;2022-11-20T02:33:58;6.20;99.90
8436;DHT22;4255;48.730;9.156;2022-11-20T02:36:26;6.20;99.90
8436;DHT22;4255;48.730;9.156;2022-11-20T02:38:53;6.30;99.90
8436;DHT22;4255;48.730;9.156;2022-11-20T02:41:18;6.30;99.90
8436;DHT22;4255;48.730;9.156;2022-11-20T02:43:44;6.30;99.90
8436;DHT22;4255;48.730;9.156;2022-11-20T02:46:10;6.30;99.90
8436;DHT22;4255;48.730;9.156;2022-11-20T02:48:35;6.40;99.90
8436;DHT22;4255;48.730;9.156;2022-11-20T02:51:01;6.40;99.90
8436;DHT22;4255;48.730;9.156;2022-11-20T02:53:27;6.40;99.90
8436;DHT22;4255;48.730;9.156;2022-11-20T02:55:52;6.40;99.90
8436;DHT22;4255;48.730;9.156;2022-11-20T02:58:18;6.40;99.90
8436;DHT22;4255;48.730;9.156;2022-11-20T03:00:44;6.40;99.90
8436;DHT22;4255;48.730;9.156;2022-11-20T03:06:25;6.40;99.90
8436;DHT22;4255;48.730;9.156;2022-11-20T03:08:50;6.50;99.90
8436;DHT22;4255;48.730;9.156;2022-11-20T03:11:16;6.50;99.90
8436;DHT22;4255;48.730;9.156;2022-11-20T03:13:42;6.60;99.90
8436;DHT22;4255;48.730;9.156;2022-11-20T03:16:13;6.70;99.90
8436;DHT22;4255;48.730;9.156;2022-11-20T03:18:40;6.60;99.90
8436;DHT22;4255;48.730;9.156;2022-11-20T03:21:07;6.50;99.90
8436;DHT22;4255;48.730;9.156;2022-11-20T03:23:34;6.50;99.90
8436;DHT22;4255;48.730;9.156;2022-11-20T03:26:15;6.40;99.90
8436;DHT22;4255;48.730;9.156;2022-11-20T03:28:42;6.40;99.90
8436;DHT22;4255;48.730;9.156;2022-11-20T03:31:12;6.30;99.90
8436;DHT22;4255;48.730;9.156;2022-11-20T03:33:40;6.30;99.90
8436;DHT22;4255;48.730;9.156;2022-11-20T03:36:11;6.40;99.90
8436;DHT22;4255;48.730;9.156;2022-11-20T03:38:37;6.30;99.90
8436;DHT22;4255;48.730;9.156;2022-11-20T03:41:06;6.30;99.90
8436;DHT22;4255;48.730;9.156;2022-11-20T03:43:32;6.30;99.90
8436;DHT22;4255;48.730;9.156;2022-11-20T03:45:58;6.30;99.90
8436;DHT22;4255;48.730;9.156;2022-11-20T03:48:24;6.20;99.90
8436;DHT22;4255;48.730;9.156;2022-11-20T03:50:51;6.20;99.90
8436;DHT22;4255;48.730;9.156;2022-11-20T03:53:17;6.20;99.90
8436;DHT22;4255;48.730;9.156;2022-11-20T03:55:43;6.30;99.90
8436;DHT22;4255;48.730;9.156;2022-11-20T03:58:10;6.30;99.90
8436;DHT22;4255;48.730;9.156;2022-11-20T04:00:36;6.10;99.90
8436;DHT22;4255;48.730;9.156;2022-11-20T04:03:02;6.10;99.90
8436;DHT22;4255;48.730;9.156;2022-11-20T04:05:28;5.90;99.90
8436;DHT22;4255;48.730;9.156;2022-11-20T04:07:53;5.80;99.90
8436;DHT22;4255;48.730;9.156;2022-11-20T04:10:19;5.70;99.90
8436;DHT22;4255;48.730;9.156;2022-11-20T04:12:45;5.60;99.90
8436;DHT22;4255;48.730;9.156;2022-11-20T04:15:11;5.50;99.90
8436;DHT22;4255;48.730;9.156;2022-11-20T04:17:36;5.50;99.90
8436;DHT22;4255;48.730;9.156;2022-11-20T04:20:03;5.50;99.90
8436;DHT22;4255;48.730;9.156;2022-11-20T04:22:28;5.60;99.90
8436;DHT22;4255;48.730;9.156;2022-11-20T04:24:54;5.50;99.90
8436;DHT22;4255;48.730;9.156;2022-11-20T04:27:20;5.70;99.90
8436;DHT22;4255;48.730;9.156;2022-11-20T04:29:46;5.60;99.90
8436;DHT22;4255;48.730;9.156;2022-11-20T04:32:11;5.60;99.90
8436;DHT22;4255;48.730;9.156;2022-11-20T04:34:37;5.60;99.90
8436;DHT22;4255;48.730;9.156;2022-11-20T04:37:03;5.60;99.90
8436;DHT22;4255;48.730;9.156;2022-11-20T04:39:28;5.60;99.90
8436;DHT22;4255;48.730;9.156;2022-11-20T04:41:54;5.60;99.90
8436;DHT22;4255;48.730;9.156;2022-11-20T04:44:38;5.50;99.90
8436;DHT22;4255;48.730;9.156;2022-11-20T04:47:04;5.40;99.90
8436;DHT22;4255;48.730;9.156;2022-11-20T04:49:30;5.20;99.90
8436;DHT22;4255;48.730;9.156;2022-11-20T04:51:57;5.20;99.90
8436;DHT22;4255;48.730;9.156;2022-11-20T04:54:22;5.30;99.90
8436;DHT22;4255;48.730;9.156;2022-11-20T04:56:49;5.40;99.90
8436;DHT22;4255;48.730;9.156;2022-11-20T04:59:14;5.50;99.90
8436;DHT22;4255;48.730;9.156;2022-11-20T05:01:40;5.40;99.90
8436;DHT22;4255;48.730;9.156;2022-11-20T05:04:06;5.60;99.90
8436;DHT22;4255;48.730;9.156;2022-11-20T05:06:31;5.50;99.90
8436;DHT22;4255;48.730;9.156;2022-11-20T05:08:57;5.60;99.90
8436;DHT22;4255;48.730;9.156;2022-11-20T05:11:23;5.70;99.90
8436;DHT22;4255;48.730;9.156;2022-11-20T05:13:51;5.70;99.90
8436;DHT22;4255;48.730;9.156;2022-11-20T05:16:21;5.80;99.90
8436;DHT22;4255;48.730;9.156;2022-11-20T05:18:47;5.80;99.90
8436;DHT22;4255;48.730;9.156;2022-11-20T05:21:13;5.80;99.90
8436;DHT22;4255;48.730;9.156;2022-11-20T05:23:40;5.80;99.90
8436;DHT22;4255;48.730;9.156;2022-11-20T05:26:07;6.00;99.90
8436;DHT22;4255;48.730;9.156;2022-11-20T05:28:34;5.90;99.90
8436;DHT22;4255;48.730;9.156;2022-11-20T05:31:11;6.00;99.90
8436;DHT22;4255;48.730;9.156;2022-11-20T05:33:38;5.80;99.90
8436;DHT22;4255;48.730;9.156;2022-11-20T05:36:04;5.90;99.90
8436;DHT22;4255;48.730;9.156;2022-11-20T05:38:30;5.80;99.90
8436;DHT22;4255;48.730;9.156;2022-11-20T05:41:06;5.90;99.90
8436;DHT22;4255;48.730;9.156;2022-11-20T05:43:33;5.90;99.90
8436;DHT22;4255;48.730;9.156;2022-11-20T05:45:59;6.00;99.90
8436;DHT22;4255;48.730;9.156;2022-11-20T05:48:25;6.10;99.90
8436;DHT22;4255;48.730;9.156;2022-11-20T05:50:50;6.20;99.90
8436;DHT22;4255;48.730;9.156;2022-11-20T05:53:16;6.10;99.90
8436;DHT22;4255;48.730;9.156;2022-11-20T05:55:41;6.00;99.90
8436;DHT22;4255;48.730;9.156;2022-11-20T05:58:07;6.10;99.90
8436;DHT22;4255;48.730;9.156;2022-11-20T06:00:33;6.00;99.90
8436;DHT22;4255;48.730;9.156;2022-11-20T06:02:58;6.20;99.90
8436;DHT22;4255;48.730;9.156;2022-11-20T06:05:24;6.20;99.90
8436;DHT22;4255;48.730;9.156;2022-11-20T06:07:49;6.20;99.90
8436;DHT22;4255;48.730;9.156;2022-11-20T06:10:15;6.30;99.90
8436;DHT22;4255;48.730;9.156;2022-11-20T06:12:40;6.40;99.90
8436;DHT22;4255;48.730;9.156;2022-11-20T06:15:06;6.40;99.90
8436;DHT22;4255;48.730;9.156;2022-11-20T06:17:32;6.60;99.90
8436;DHT22;4255;48.730;9.156;2022-11-20T06:19:58;6.60;99.90
8436;DHT22;4255;48.730;9.156;2022-11-20T06:22:23;6.60;99.90
8436;DHT22;4255;48.730;9.156;2022-11-20T06:24:49;6.70;99.90
8436;DHT22;4255;48.730;9.156;2022-11-20T06:27:15;6.40;99.90
8436;DHT22;4255;48.730;9.156;2022-11-20T06:29:40;6.40;99.90
8436;DHT22;4255;48.730;9.156;2022-11-20T06:32:06;6.60;99.90
8436;DHT22;4255;48.730;9.156;2022-11-20T06:34:32;6.60;99.90
8436;DHT22;4255;48.730;9.156;2022-11-20T06:36:57;6.60;99.90
8436;DHT22;4255;48.730;9.156;2022-11-20T06:39:23;6.70;99.90
8436;DHT22;4255;48.730;9.156;2022-11-20T06:41:48;6.80;99.90
8436;DHT22;4255;48.730;9.156;2022-11-20T06:44:14;6.80;99.90
8436;DHT22;4255;48.730;9.156;2022-11-20T06:46:39;6.70;99.90
8436;DHT22;4255;48.730;9.156;2022-11-20T06:49:05;6.60;99.90
8436;DHT22;4255;48.730;9.156;2022-11-20T06:51:31;6.60;99.90
8436;DHT22;4255;48.730;9.156;2022-11-20T06:53:56;6.60;99.90
8436;DHT22;4255;48.730;9.156;2022-11-20T06:56:22;6.50;99.90
8436;DHT22;4255;48.730;9.156;2022-11-20T06:58:48;6.50;99.90
8436;DHT22;4255;48.730;9.156;2022-11-20T07:01:15;6.40;99.90
8436;DHT22;4255;48.730;9.156;2022-11-20T07:03:41;6.40;99.90
8436;DHT22;4255;48.730;9.156;2022-11-20T07:06:07;6.40;99.90
8436;DHT22;4255;48.730;9.156;2022-11-20T07:08:34;6.40;99.90
8436;DHT22;4255;48.730;9.156;2022-11-20T07:11:01;6.40;99.90
8436;DHT22;4255;48.730;9.156;2022-11-20T07:13:28;6.50;99.90
8436;DHT22;4255;48.730;9.156;2022-11-20T07:15:54;6.50;99.90
8436;DHT22;4255;48.730;9.156;2022-11-20T07:18:20;6.60;99.90
8436;DHT22;4255;48.730;9.156;2022-11-20T07:20:46;6.50;99.90
8436;DHT22;4255;48.730;9.156;2022-11-20T07:23:11;6.40;99.90
8436;DHT22;4255;48.730;9.156;2022-11-20T07:25:37;6.50;99.90
8436;DHT22;4255;48.730;9.156;2022-11-20T07:28:02;6.50;99.90
8436;DHT22;4255;48.730;9.156;2022-11-20T07:30:29;6.60;99.90
8436;DHT22;4255;48.730;9.156;2022-11-20T07:32:56;6.70;99.90
8436;DHT22;4255;48.730;9.156;2022-11-20T07:35:25;6.70;99.90
8436;DHT22;4255;48.730;9.156;2022-11-20T07:37:51;6.70;99.90
8436;DHT22;4255;48.730;9.156;2022-11-20T07:40:17;6.70;99.90
8436;DHT22;4255;48.730;9.156;2022-11-20T07:42:50;6.70;99.90
8436;DHT22;4255;48.730;9.156;2022-11-20T07:45:18;6.80;99.90
8436;DHT22;4255;48.730;9.156;2022-11-20T07:47:43;6.70;99.90
8436;DHT22;4255;48.730;9.156;2022-11-20T07:50:10;6.90;99.90
8436;DHT22;4255;48.730;9.156;2022-11-20T07:52:35;6.90;99.90
8436;DHT22;4255;48.730;9.156;2022-11-20T07:55:01;7.80;99.90
8436;DHT22;4255;48.730;9.156;2022-11-20T07:57:26;8.50;99.90
8436;DHT22;4255;48.730;9.156;2022-11-20T07:59:52;9.60;99.90
8436;DHT22;4255;48.730;9.156;2022-11-20T08:02:17;11.00;99.90
8436;DHT22;4255;48.730;9.156;2022-11-20T08:04:43;10.90;99.90
8436;DHT22;4255;48.730;9.156;2022-11-20T08:07:09;10.60;99.90
8436;DHT22;4255;48.730;9.156;2022-11-20T08:09:34;9.90;99.90
8436;DHT22;4255;48.730;9.156;2022-11-20T08:12:00;9.20;99.90
8436;DHT22;4255;48.730;9.156;2022-11-20T08:14:44;8.70;99.90
8436;DHT22;4255;48.730;9.156;2022-11-20T08:17:09;8.20;99.90
8436;DHT22;4255;48.730;9.156;2022-11-20T08:19:35;8.00;99.90
8436;DHT22;4255;48.730;9.156;2022-11-20T08:22:01;7.80;99.90
8436;DHT22;4255;48.730;9.156;2022-11-20T08:24:26;7.80;99.90
8436;DHT22;4255;48.730;9.156;2022-11-20T08:26:52;7.80;99.90
8436;DHT22;4255;48.730;9.156;2022-11-20T08:29:18;7.80;99.90
8436;DHT22;4255;48.730;9.156;2022-11-20T08:31:43;7.70;99.90
8436;DHT22;4255;48.730;9.156;2022-11-20T08:34:09;7.40;99.90
8436;DHT22;4255;48.730;9.156;2022-11-20T08:36:35;7.30;99.90
8436;DHT22;4255;48.730;9.156;2022-11-20T08:39:01;7.10;99.90
8436;DHT22;4255;48.730;9.156;2022-11-20T08:41:27;7.00;99.90
8436;DHT22;4255;48.730;9.156;2022-11-20T08:43:55;7.10;99.90
8436;DHT22;4255;48.730;9.156;2022-11-20T08:46:21;7.10;99.90
8436;DHT22;4255;48.730;9.156;2022-11-20T08:48:47;7.00;99.90
8436;DHT22;4255;48.730;9.156;2022-11-20T08:51:13;7.00;99.90
8436;DHT22;4255;48.730;9.156;2022-11-20T08:53:39;7.00;99.90
8436;DHT22;4255;48.730;9.156;2022-11-20T08:56:06;7.00;99.90
8436;DHT22;4255;48.730;9.156;2022-11-20T08:58:31;7.20;99.90
8436;DHT22;4255;48.730;9.156;2022-11-20T09:00:57;7.30;99.90
8436;DHT22;4255;48.730;9.156;2022-11-20T09:03:23;7.40;99.90
8436;DHT22;4255;48.730;9.156;2022-11-20T09:05:48;7.60;99.90
8436;DHT22;4255;48.730;9.156;2022-11-20T09:08:14;7.40;99.90
8436;DHT22;4255;48.730;9.156;2022-11-20T09:10:40;7.30;99.90
8436;DHT22;4255;48.730;9.156;2022-11-20T09:13:05;7.20;99.90
8436;DHT22;4255;48.730;9.156;2022-11-20T09:15:31;7.30;99.90
8436;DHT22;4255;48.730;9.156;2022-11-20T09:17:59;7.30;99.90
8436;DHT22;4255;48.730;9.156;2022-11-20T09:20:26;7.30;99.90
8436;DHT22;4255;48.730;9.156;2022-11-20T09:22:52;7.40;99.90
8436;DHT22;4255;48.730;9.156;2022-11-20T09:25:18;7.40;99.90
8436;DHT22;4255;48.730;9.156;2022-11-20T09:27:44;7.50;99.90
8436;DHT22;4255;48.730;9.156;2022-11-20T09:30:12;7.50;99.90
8436;DHT22;4255;48.730;9.156;2022-11-20T09:32:39;7.40;99.90
8436;DHT22;4255;48.730;9.156;2022-11-20T09:35:05;7.60;99.90
8436;DHT22;4255;48.730;9.156;2022-11-20T09:37:30;7.60;99.90
8436;DHT22;4255;48.730;9.156;2022-11-20T09:39:56;7.70;99.90
8436;DHT22;4255;48.730;9.156;2022-11-20T09:42:41;7.60;99.90
8436;DHT22;4255;48.730;9.156;2022-11-20T09:45:43;7.60;99.90
8436;DHT22;4255;48.730;9.156;2022-11-20T09:49:05;7.50;99.90
8436;DHT22;4255;48.730;9.156;2022-11-20T09:53:55;7.30;99.90
8436;DHT22;4255;48.730;9.156;2022-11-20T09:56:24;7.40;99.90
8436;DHT22;4255;48.730;9.156;2022-11-20T09:58:52;7.50;99.90
8436;DHT22;4255;48.730;9.156;2022-11-20T10:01:26;7.50;99.90
8436;DHT22;4255;48.730;9.156;2022-11-20T10:06:31;7.80;99.90
8436;DHT22;4255;48.730;9.156;2022-11-20T10:20:16;7.50;99.90
8436;DHT22;4255;48.730;9.156;2022-11-20T10:22:52;7.50;99.90
8436;DHT22;4255;48.730;9.156;2022-11-20T10:25:46;7.50;99.90
8436;DHT22;4255;48.730;9.156;2022-11-20T10:34:06;7.50;99.90
8436;DHT22;4255;48.730;9.156;2022-11-20T10:36:41;7.30;99.90
8436;DHT22;4255;48.730;9.156;2022-11-20T10:42:09;7.40;99.90
8436;DHT22;4255;48.730;9.156;2022-11-20T10:44:36;7.30;99.90
8436;DHT22;4255;48.730;9.156;2022-11-20T10:47:22;7.10;99.90
8436;DHT22;4255;48.730;9.156;2022-11-20T10:50:02;7.20;99.90
8436;DHT22;4255;48.730;9.156;2022-11-20T10:55:54;7.30;99.90
8436;DHT22;4255;48.730;9.156;2022-11-20T11:01:22;7.20;99.90
8436;DHT22;4255;48.730;9.156;2022-11-20T11:03:50;7.20;99.90
8436;DHT22;4255;48.730;9.156;2022-11-20T11:06:34;7.30;99.90
8436;DHT22;4255;48.730;9.156;2022-11-20T11:09:09;7.50;99.90
8436;DHT22;4255;48.730;9.156;2022-11-20T11:11:38;7.50;99.90
8436;DHT22;4255;48.730;9.156;2022-11-20T11:14:13;7.50;99.90
8436;DHT22;4255;48.730;9.156;2022-11-20T11:16:56;7.60;99.90
8436;DHT22;4255;48.730;9.156;2022-11-20T11:19:23;7.50;99.90
8436;DHT22;4255;48.730;9.156;2022-11-20T11:21:53;7.50;99.90
8436;DHT22;4255;48.730;9.156;2022-11-20T11:24:28;7.80;99.90
8436;DHT22;4255;48.730;9.156;2022-11-20T11:27:00;7.70;99.90
8436;DHT22;4255;48.730;9.156;2022-11-20T11:29:30;7.70;99.90
8436;DHT22;4255;48.730;9.156;2022-11-20T11:32:15;7.80;99.90
8436;DHT22;4255;48.730;9.156;2022-11-20T11:34:41;7.90;99.90
8436;DHT22;4255;48.730;9.156;2022-11-20T11:37:20;7.90;99.90
8436;DHT22;4255;48.730;9.156;2022-11-20T11:39:50;8.00;99.90
8436;DHT22;4255;48.730;9.156;2022-11-20T11:42:19;8.20;99.90
8436;DHT22;4255;48.730;9.156;2022-11-20T11:44:47;8.20;99.90
8436;DHT22;4255;48.730;9.156;2022-11-20T11:58:44;8.90;99.90
8436;DHT22;4255;48.730;9.156;2022-11-20T12:03:50;9.20;99.90
8436;DHT22;4255;48.730;9.156;2022-11-20T12:06:18;9.20;99.90
8436;DHT22;4255;48.730;9.156;2022-11-20T12:09:04;9.20;99.90
8436;DHT22;4255;48.730;9.156;2022-11-20T12:16:52;9.50;99.90
8436;DHT22;4255;48.730;9.156;2022-11-20T12:19:19;9.60;99.90
8436;DHT22;4255;48.730;9.156;2022-11-20T12:30:12;9.00;99.90
8436;DHT22;4255;48.730;9.156;2022-11-20T12:36:04;8.90;99.90
8436;DHT22;4255;48.730;9.156;2022-11-20T12:39:16;8.80;99.90
8436;DHT22;4255;48.730;9.156;2022-11-20T12:45:54;8.80;99.90
8436;DHT22;4255;48.730;9.156;2022-11-20T12:53:58;8.80;99.90
8436;DHT22;4255;48.730;9.156;2022-11-20T13:05:21;8.50;99.90
8436;DHT22;4255;48.730;9.156;2022-11-20T13:07:51;8.50;99.90
8436;DHT22;4255;48.730;9.156;2022-11-20T13:10:33;8.60;99.90
8436;DHT22;4255;48.730;9.156;2022-11-20T13:13:18;8.70;99.90
8436;DHT22;4255;48.730;9.156;2022-11-20T13:16:14;8.90;99.90
8436;DHT22;4255;48.730;9.156;2022-11-20T13:18:42;9.00;99.90
8436;DHT22;4255;48.730;9.156;2022-11-20T13:21:42;9.10;99.90
8436;DHT22;4255;48.730;9.156;2022-11-20T13:29:44;8.80;99.90
8436;DHT22;4255;48.730;9.156;2022-11-20T13:32:14;8.60;99.90
8436;DHT22;4255;48.730;9.156;2022-11-20T13:34:52;8.70;99.90
8436;DHT22;4255;48.730;9.156;2022-11-20T13:37:33;8.60;99.90
8436;DHT22;4255;48.730;9.156;2022-11-20T13:42:43;8.70;99.90
8436;DHT22;4255;48.730;9.156;2022-11-20T13:45:25;8.60;99.90
8436;DHT22;4255;48.730;9.156;2022-11-20T13:47:52;8.70;99.90
8436;DHT22;4255;48.730;9.156;2022-11-20T13:50:19;8.80;99.90
8436;DHT22;4255;48.730;9.156;2022-11-20T13:53:11;8.90;99.90
8436;DHT22;4255;48.730;9.156;2022-11-20T13:55:54;9.10;99.90
8436;DHT22;4255;48.730;9.156;2022-11-20T13:58:55;9.10;99.90
8436;DHT22;4255;48.730;9.156;2022-11-20T14:01:28;9.30;99.90
8436;DHT22;4255;48.730;9.156;2022-11-20T14:03:55;9.10;99.90
8436;DHT22;4255;48.730;9.156;2022-11-20T14:06:32;9.00;99.90
8436;DHT22;4255;48.730;9.156;2022-11-20T14:09:00;9.00;99.90
8436;DHT22;4255;48.730;9.156;2022-11-20T14:11:29;8.70;99.90
8436;DHT22;4255;48.730;9.156;2022-11-20T14:14:24;8.80;99.90
8436;DHT22;4255;48.730;9.156;2022-11-20T14:16:50;8.70;99.90
8436;DHT22;4255;48.730;9.156;2022-11-20T14:21:46;8.50;99.90
8436;DHT22;4255;48.730;9.156;2022-11-20T14:24:12;8.40;99.90
8436;DHT22;4255;48.730;9.156;2022-11-20T14:26:43;8.20;99.90
8436;DHT22;4255;48.730;9.156;2022-11-20T14:29:14;8.20;99.90
8436;DHT22;4255;48.730;9.156;2022-11-20T14:31:40;8.20;99.90
8436;DHT22;4255;48.730;9.156;2022-11-20T14:34:14;8.20;99.90
8436;DHT22;4255;48.730;9.156;2022-11-20T14:36:43;8.10;99.90
8436;DHT22;4255;48.730;9.156;2022-11-20T14:39:21;8.10;99.90
8436;DHT22;4255;48.730;9.156;2022-11-20T14:41:51;8.10;99.90
8436;DHT22;4255;48.730;9.156;2022-11-20T14:44:17;8.20;99.90
8436;DHT22;4255;48.730;9.156;2022-11-20T14:46:45;8.30;99.90
8436;DHT22;4255;48.730;9.156;2022-11-20T14:49:11;8.40;99.90
8436;DHT22;4255;48.730;9.156;2022-11-20T14:51:38;8.40;99.90
8436;DHT22;4255;48.730;9.156;2022-11-20T14:54:25;8.40;99.90
8436;DHT22;4255;48.730;9.156;2022-11-20T14:57:02;8.50;99.90
8436;DHT22;4255;48.730;9.156;2022-11-20T14:59:31;8.70;99.90
8436;DHT22;4255;48.730;9.156;2022-11-20T15:01:59;8.60;99.90
8436;DHT22;4255;48.730;9.156;2022-11-20T15:04:26;8.70;99.90
8436;DHT22;4255;48.730;9.156;2022-11-20T15:06:56;8.60;99.90
8436;DHT22;4255;48.730;9.156;2022-11-20T15:09:22;8.50;99.90
8436;DHT22;4255;48.730;9.156;2022-11-20T15:11:56;8.40;99.90
8436;DHT22;4255;48.730;9.156;2022-11-20T15:14:23;8.40;99.90
8436;DHT22;4255;48.730;9.156;2022-11-20T15:16:50;8.20;99.90
8436;DHT22;4255;48.730;9.156;2022-11-20T15:19:22;8.00;99.90
8436;DHT22;4255;48.730;9.156;2022-11-20T15:21:48;7.90;99.90
8436;DHT22;4255;48.730;9.156;2022-11-20T15:24:14;8.00;99.90
8436;DHT22;4255;48.730;9.156;2022-11-20T15:26:39;7.80;99.90
8436;DHT22;4255;48.730;9.156;2022-11-20T15:29:10;7.90;99.90
8436;DHT22;4255;48.730;9.156;2022-11-20T15:31:37;8.00;99.90
8436;DHT22;4255;48.730;9.156;2022-11-20T15:34:04;7.90;99.90
8436;DHT22;4255;48.730;9.156;2022-11-20T15:36:31;7.90;99.90
8436;DHT22;4255;48.730;9.156;2022-11-20T15:38:57;7.90;99.90
8436;DHT22;4255;48.730;9.156;2022-11-20T15:41:22;7.90;99.90
8436;DHT22;4255;48.730;9.156;2022-11-20T15:43:48;8.00;99.90
8436;DHT22;4255;48.730;9.156;2022-11-20T15:46:15;7.90;99.90
8436;DHT22;4255;48.730;9.156;2022-11-20T15:48:59;7.90;99.90
8436;DHT22;4255;48.730;9.156;2022-11-20T15:51:28;7.90;99.90
8436;DHT22;4255;48.730;9.156;2022-11-20T15:53:55;7.80;99.90
8436;DHT22;4255;48.730;9.156;2022-11-20T15:56:21;7.70;99.90
8436;DHT22;4255;48.730;9.156;2022-11-20T15:58:46;7.60;99.90
8436;DHT22;4255;48.730;9.156;2022-11-20T16:01:14;7.50;99.90
8436;DHT22;4255;48.730;9.156;2022-11-20T16:03:40;7.60;99.90
8436;DHT22;4255;48.730;9.156;2022-11-20T16:06:06;7.70;99.90
8436;DHT22;4255;48.730;9.156;2022-11-20T16:08:32;7.80;99.90
8436;DHT22;4255;48.730;9.156;2022-11-20T16:10:58;7.70;99.90
8436;DHT22;4255;48.730;9.156;2022-11-20T16:13:23;7.90;99.90
8436;DHT22;4255;48.730;9.156;2022-11-20T16:16:17;7.90;99.90
8436;DHT22;4255;48.730;9.156;2022-11-20T16:18:44;7.90;99.90
8436;DHT22;4255;48.730;9.156;2022-11-20T16:21:12;7.80;99.90
8436;DHT22;4255;48.730;9.156;2022-11-20T16:23:39;7.80;99.90
8436;DHT22;4255;48.730;9.156;2022-11-20T16:26:17;7.60;99.90
8436;DHT22;4255;48.730;9.156;2022-11-20T16:28:44;7.70;99.90
8436;DHT22;4255;48.730;9.156;2022-11-20T16:31:11;7.60;99.90
8436;DHT22;4255;48.730;9.156;2022-11-20T16:33:37;7.60;99.90
8436;DHT22;4255;48.730;9.156;2022-11-20T16:36:10;7.60;99.90
8436;DHT22;4255;48.730;9.156;2022-11-20T16:38:36;7.60;99.90
8436;DHT22;4255;48.730;9.156;2022-11-20T16:41:03;7.60;99.90
8436;DHT22;4255;48.730;9.156;2022-11-20T16:43:29;7.70;99.90
8436;DHT22;4255;48.730;9.156;2022-11-20T16:45:54;7.70;99.90
8436;DHT22;4255;48.730;9.156;2022-11-20T16:48:20;7.50;99.90
8436;DHT22;4255;48.730;9.156;2022-11-20T16:50:48;6.60;99.90
8436;DHT22;4255;48.730;9.156;2022-11-20T16:53:14;7.40;99.90
8436;DHT22;4255;48.730;9.156;2022-11-20T16:55:39;7.30;99.90
8436;DHT22;4255;48.730;9.156;2022-11-20T16:58:05;7.50;99.90
8436;DHT22;4255;48.730;9.156;2022-11-20T17:00:30;7.30;99.90
8436;DHT22;4255;48.730;9.156;2022-11-20T17:02:56;7.30;99.90
8436;DHT22;4255;48.730;9.156;2022-11-20T17:05:21;7.40;99.90
8436;DHT22;4255;48.730;9.156;2022-11-20T17:07:47;7.30;99.90
8436;DHT22;4255;48.730;9.156;2022-11-20T17:10:13;7.30;99.90
8436;DHT22;4255;48.730;9.156;2022-11-20T17:12:38;7.50;99.90
8436;DHT22;4255;48.730;9.156;2022-11-20T17:15:04;7.20;99.90
8436;DHT22;4255;48.730;9.156;2022-11-20T17:17:30;7.20;99.90
8436;DHT22;4255;48.730;9.156;2022-11-20T17:19:55;7.30;99.90
8436;DHT22;4255;48.730;9.156;2022-11-20T17:22:21;7.30;99.90
8436;DHT22;4255;48.730;9.156;2022-11-20T17:24:46;7.20;99.90
8436;DHT22;4255;48.730;9.156;2022-11-20T17:27:12;7.10;99.90
8436;DHT22;4255;48.730;9.156;2022-11-20T17:29:38;7.10;99.90
8436;DHT22;4255;48.730;9.156;2022-11-20T17:32:03;7.20;99.90
8436;DHT22;4255;48.730;9.156;2022-11-20T17:34:29;7.10;99.90
8436;DHT22;4255;48.730;9.156;2022-11-20T17:36:54;7.10;99.90
8436;DHT22;4255;48.730;9.156;2022-11-20T17:39:20;7.00;99.90
8436;DHT22;4255;48.730;9.156;2022-11-20T17:41:45;6.90;99.90
8436;DHT22;4255;48.730;9.156;2022-11-20T17:44:32;6.90;99.90
8436;DHT22;4255;48.730;9.156;2022-11-20T17:46:57;6.90;99.90
8436;DHT22;4255;48.730;9.156;2022-11-20T17:49:23;7.10;99.90
8436;DHT22;4255;48.730;9.156;2022-11-20T17:51:48;7.20;99.90
8436;DHT22;4255;48.730;9.156;2022-11-20T17:54:14;7.10;99.90
8436;DHT22;4255;48.730;9.156;2022-11-20T17:56:39;7.20;99.90
8436;DHT22;4255;48.730;9.156;2022-11-20T17:59:24;7.30;99.90
8436;DHT22;4255;48.730;9.156;2022-11-20T18:01:49;7.30;99.90
8436;DHT22;4255;48.730;9.156;2022-11-20T18:04:15;7.30;99.90
8436;DHT22;4255;48.730;9.156;2022-11-20T18:06:41;7.30;99.90
8436;DHT22;4255;48.730;9.156;2022-11-20T18:09:07;7.40;99.90
8436;DHT22;4255;48.730;9.156;2022-11-20T18:11:35;7.30;99.90